createdAt,value
2019-05-05T00:00:01.004Z,0.00
2019-05-05T00:01:01.016Z,0.00
2019-05-05T00:02:00.981Z,0.00
2019-05-05T00:03:01.072Z,0.00
2019-05-05T00:04:00.961Z,0.00
2019-05-05T00:05:00.973Z,0.00
2019-05-05T00:06:00.934Z,0.00
2019-05-05T00:07:00.925Z,0.00
2019-05-05T00:08:00.952Z,0.00
2019-05-05T00:09:00.915Z,0.00
2019-05-05T00:10:00.903Z,0.00
2019-05-05T00:11:00.885Z,0.00
2019-05-05T00:12:00.870Z,0.00
2019-05-05T00:13:00.886Z,0.00
2019-05-05T00:14:00.850Z,0.00
2019-05-05T00:15:00.838Z,0.00
2019-05-05T00:16:00.845Z,0.00
2019-05-05T00:17:00.862Z,0.00
2019-05-05T00:18:00.824Z,0.00
2019-05-05T00:19:00.798Z,0.00
2019-05-05T00:20:00.800Z,0.00
2019-05-05T00:21:00.776Z,0.00
2019-05-05T00:22:00.770Z,0.00
2019-05-05T00:23:00.790Z,0.00
2019-05-05T00:24:00.748Z,0.00
2019-05-05T00:25:00.758Z,0.00
2019-05-05T00:26:00.750Z,0.00
2019-05-05T00:27:00.722Z,0.00
2019-05-05T00:28:00.728Z,0.00
2019-05-05T00:29:01.339Z,0.00
2019-05-05T00:30:00.690Z,0.00
2019-05-05T00:31:00.671Z,0.00
2019-05-05T00:32:00.664Z,0.00
2019-05-05T00:33:00.670Z,0.00
2019-05-05T00:34:00.642Z,0.00
2019-05-05T00:35:00.628Z,0.00
2019-05-05T00:36:00.612Z,0.00
2019-05-05T00:37:00.624Z,0.00
2019-05-05T00:38:00.712Z,0.00
2019-05-05T00:39:00.591Z,0.00
2019-05-05T00:40:00.598Z,0.00
2019-05-05T00:41:00.558Z,0.00
2019-05-05T00:42:00.546Z,0.00
2019-05-05T00:43:00.662Z,0.00
2019-05-05T00:44:00.540Z,0.00
2019-05-05T00:45:00.531Z,0.00
2019-05-05T00:46:00.501Z,0.00
2019-05-05T00:47:00.494Z,0.00
2019-05-05T00:48:00.512Z,0.00
2019-05-05T00:49:00.476Z,0.00
2019-05-05T00:50:00.465Z,0.00
2019-05-05T00:51:00.450Z,0.00
2019-05-05T00:52:00.439Z,0.00
2019-05-05T00:53:00.433Z,0.00
2019-05-05T00:54:00.471Z,0.00
2019-05-05T00:55:00.407Z,0.00
2019-05-05T00:56:00.407Z,0.00
2019-05-05T00:57:00.392Z,0.00
2019-05-05T00:58:00.376Z,0.00
2019-05-05T00:59:00.381Z,0.00
2019-05-05T01:00:00.363Z,0.00
2019-05-05T01:01:00.357Z,0.00
2019-05-05T01:02:00.339Z,0.00
2019-05-05T01:03:00.327Z,0.00
2019-05-05T01:04:00.339Z,0.00
2019-05-05T01:05:00.297Z,0.00
2019-05-05T01:06:00.286Z,0.00
2019-05-05T01:07:00.294Z,0.00
2019-05-05T01:08:00.284Z,0.00
2019-05-05T01:09:00.306Z,0.00
2019-05-05T01:10:00.274Z,0.00
2019-05-05T01:11:00.237Z,0.00
2019-05-05T01:12:00.225Z,0.00
2019-05-05T01:13:00.219Z,0.00
2019-05-05T01:14:00.222Z,0.00
2019-05-05T01:15:00.188Z,0.00
2019-05-05T01:16:00.189Z,0.00
2019-05-05T01:17:00.190Z,0.00
2019-05-05T01:18:02.202Z,0.00
2019-05-05T01:19:00.172Z,0.00
2019-05-05T01:20:03.786Z,0.00
2019-05-05T01:21:00.123Z,0.00
2019-05-05T01:22:00.155Z,0.00
2019-05-05T01:23:00.110Z,0.00
2019-05-05T01:24:00.122Z,0.00
2019-05-05T01:25:00.084Z,0.00
2019-05-05T01:26:00.076Z,0.00
2019-05-05T01:27:00.065Z,0.00
2019-05-05T01:28:00.053Z,0.00
2019-05-05T01:29:00.074Z,0.00
2019-05-05T01:30:00.050Z,0.00
2019-05-05T01:31:00.020Z,0.00
2019-05-05T01:32:00.017Z,0.00
2019-05-05T01:33:00.001Z,0.00
2019-05-05T01:33:59.990Z,0.00
2019-05-05T01:35:00.015Z,0.00
2019-05-05T01:35:59.973Z,0.00
2019-05-05T01:36:59.955Z,0.00
2019-05-05T01:37:59.954Z,0.00
2019-05-05T01:38:59.936Z,0.00
2019-05-05T01:39:59.953Z,0.00
2019-05-05T01:40:59.920Z,0.00
2019-05-05T01:41:59.908Z,0.00
2019-05-05T01:42:59.898Z,0.00
2019-05-05T01:43:59.898Z,0.00
2019-05-05T01:44:59.915Z,0.00
2019-05-05T01:45:59.860Z,0.00
2019-05-05T01:46:59.858Z,0.00
2019-05-05T01:47:59.850Z,0.00
2019-05-05T01:48:59.830Z,0.00
2019-05-05T01:49:59.841Z,0.00
2019-05-05T01:50:59.802Z,0.00
2019-05-05T01:51:59.796Z,0.00
2019-05-05T01:52:59.789Z,0.00
2019-05-05T01:53:59.772Z,0.00
2019-05-05T01:54:59.800Z,0.00
2019-05-05T01:55:59.760Z,0.00
2019-05-05T01:56:59.743Z,0.00
2019-05-05T01:57:59.761Z,0.00
2019-05-05T01:58:59.726Z,0.00
2019-05-05T01:59:59.750Z,0.00
2019-05-05T02:00:59.696Z,0.00
2019-05-05T02:01:59.686Z,0.00
2019-05-05T02:02:59.682Z,0.00
2019-05-05T02:03:59.684Z,0.00
2019-05-05T02:04:59.683Z,0.00
2019-05-05T02:05:59.641Z,0.00
2019-05-05T02:06:59.646Z,0.00
2019-05-05T02:07:59.634Z,0.00
2019-05-05T02:08:59.615Z,0.00
2019-05-05T02:09:59.623Z,0.00
2019-05-05T02:10:59.609Z,0.00
2019-05-05T02:11:59.584Z,0.00
2019-05-05T02:12:59.571Z,0.00
2019-05-05T02:13:59.572Z,0.00
2019-05-05T02:14:59.552Z,0.00
2019-05-05T02:15:59.557Z,0.00
2019-05-05T02:16:59.531Z,0.00
2019-05-05T02:17:59.519Z,0.00
2019-05-05T02:18:59.515Z,0.00
2019-05-05T02:19:59.495Z,0.00
2019-05-05T02:20:59.513Z,0.00
2019-05-05T02:21:59.481Z,0.00
2019-05-05T02:22:59.465Z,0.00
2019-05-05T02:23:59.463Z,0.00
2019-05-05T02:24:59.444Z,0.00
2019-05-05T02:25:59.456Z,0.00
2019-05-05T02:26:59.423Z,0.00
2019-05-05T02:27:59.423Z,0.00
2019-05-05T02:28:59.401Z,0.00
2019-05-05T02:29:59.398Z,0.00
2019-05-05T02:30:59.410Z,0.00
2019-05-05T02:31:59.387Z,0.00
2019-05-05T02:32:59.380Z,0.00
2019-05-05T02:33:59.346Z,0.00
2019-05-05T02:34:59.337Z,0.00
2019-05-05T02:35:59.339Z,0.00
2019-05-05T02:36:59.318Z,0.00
2019-05-05T02:37:59.310Z,0.00
2019-05-05T02:38:59.291Z,0.00
2019-05-05T02:40:06.398Z,0.00
2019-05-05T02:41:00.292Z,0.00
2019-05-05T02:41:59.265Z,0.00
2019-05-05T02:42:59.263Z,0.00
2019-05-05T02:43:59.239Z,0.00
2019-05-05T02:44:59.248Z,0.00
2019-05-05T02:45:59.258Z,0.00
2019-05-05T02:46:59.210Z,0.00
2019-05-05T02:47:59.204Z,0.00
2019-05-05T02:48:59.199Z,0.00
2019-05-05T02:49:59.192Z,0.00
2019-05-05T02:51:02.376Z,0.00
2019-05-05T02:51:59.157Z,0.00
2019-05-05T02:52:59.145Z,0.00
2019-05-05T02:53:59.143Z,0.00
2019-05-05T02:54:59.124Z,0.00
2019-05-05T02:55:59.123Z,0.00
2019-05-05T02:56:59.128Z,4.00
2019-05-05T02:57:59.091Z,4.00
2019-05-05T02:58:59.088Z,0.00
2019-05-05T02:59:59.084Z,4.00
2019-05-05T03:00:59.067Z,4.00
2019-05-05T03:01:59.074Z,4.00
2019-05-05T03:02:59.104Z,4.00
2019-05-05T03:03:59.027Z,4.00
2019-05-05T03:04:59.016Z,8.00
2019-05-05T03:05:59.009Z,8.00
2019-05-05T03:06:59.034Z,8.00
2019-05-05T03:07:59.005Z,8.00
2019-05-05T03:08:58.968Z,12.00
2019-05-05T03:09:58.960Z,16.00
2019-05-05T03:10:58.953Z,16.00
2019-05-05T03:11:58.966Z,20.00
2019-05-05T03:12:58.932Z,20.00
2019-05-05T03:13:58.940Z,20.00
2019-05-05T03:14:58.910Z,24.00
2019-05-05T03:15:58.896Z,28.00
2019-05-05T03:16:58.916Z,32.00
2019-05-05T03:17:58.878Z,36.00
2019-05-05T03:18:58.876Z,40.00
2019-05-05T03:19:58.852Z,44.00
2019-05-05T03:21:04.404Z,48.00
2019-05-05T03:21:59.850Z,56.00
2019-05-05T03:22:58.826Z,64.00
2019-05-05T03:23:58.809Z,68.00
2019-05-05T03:24:58.805Z,76.00
2019-05-05T03:25:58.788Z,84.00
2019-05-05T03:26:58.810Z,92.00
2019-05-05T03:27:58.765Z,100.00
2019-05-05T03:28:58.770Z,112.00
2019-05-05T03:29:58.745Z,120.00
2019-05-05T03:30:58.743Z,132.00
2019-05-05T03:31:58.759Z,148.00
2019-05-05T03:32:58.735Z,156.00
2019-05-05T03:33:58.720Z,172.00
2019-05-05T03:34:58.695Z,184.00
2019-05-05T03:35:58.684Z,196.00
2019-05-05T03:36:58.680Z,212.00
2019-05-05T03:37:58.687Z,228.00
2019-05-05T03:38:58.652Z,240.00
2019-05-05T03:39:58.646Z,256.00
2019-05-05T03:40:58.628Z,272.00
2019-05-05T03:41:58.620Z,292.00
2019-05-05T03:42:58.733Z,304.00
2019-05-05T03:43:58.599Z,324.00
2019-05-05T03:44:58.614Z,340.00
2019-05-05T03:45:58.601Z,360.00
2019-05-05T03:46:58.584Z,380.00
2019-05-05T03:47:58.568Z,396.00
2019-05-05T03:48:58.593Z,412.00
2019-05-05T03:49:58.534Z,432.00
2019-05-05T03:50:58.517Z,448.00
2019-05-05T03:51:58.525Z,472.00
2019-05-05T03:52:58.523Z,488.00
2019-05-05T03:53:58.498Z,508.00
2019-05-05T03:54:58.473Z,528.00
2019-05-05T03:55:58.465Z,544.00
2019-05-05T03:56:58.455Z,564.00
2019-05-05T03:57:58.466Z,584.00
2019-05-05T03:58:58.441Z,604.00
2019-05-05T03:59:58.432Z,624.00
2019-05-05T04:00:58.411Z,644.00
2019-05-05T04:01:58.407Z,664.00
2019-05-05T04:02:58.426Z,680.00
2019-05-05T04:03:58.383Z,704.00
2019-05-05T04:04:58.395Z,720.00
2019-05-05T04:05:58.360Z,740.00
2019-05-05T04:06:58.349Z,760.00
2019-05-05T04:07:58.365Z,780.00
2019-05-05T04:08:58.325Z,796.00
2019-05-05T04:09:58.321Z,816.00
2019-05-05T04:10:58.310Z,836.00
2019-05-05T04:11:58.296Z,852.00
2019-05-05T04:12:58.319Z,868.00
2019-05-05T04:13:58.273Z,888.00
2019-05-05T04:14:58.275Z,904.00
2019-05-05T04:15:58.255Z,924.00
2019-05-05T04:16:58.255Z,940.00
2019-05-05T04:17:58.269Z,960.00
2019-05-05T04:18:58.217Z,976.00
2019-05-05T04:19:58.209Z,992.00
2019-05-05T04:20:58.199Z,1008.00
2019-05-05T04:21:58.197Z,1024.00
2019-05-05T04:22:58.449Z,1040.00
2019-05-05T04:23:58.219Z,1056.00
2019-05-05T04:24:58.158Z,1072.00
2019-05-05T04:25:58.146Z,1088.00
2019-05-05T04:26:58.140Z,1108.00
2019-05-05T04:27:58.134Z,1120.00
2019-05-05T04:28:58.139Z,1140.00
2019-05-05T04:29:58.100Z,1152.00
2019-05-05T04:30:58.099Z,1168.00
2019-05-05T04:31:58.084Z,1188.00
2019-05-05T04:32:58.070Z,1204.00
2019-05-05T04:33:58.115Z,1220.00
2019-05-05T04:34:58.051Z,1236.00
2019-05-05T04:35:58.038Z,1252.00
2019-05-05T04:36:58.032Z,1268.00
2019-05-05T04:37:58.036Z,1284.00
2019-05-05T04:38:58.039Z,1300.00
2019-05-05T04:39:58.006Z,1320.00
2019-05-05T04:40:57.986Z,1336.00
2019-05-05T04:41:57.982Z,1352.00
2019-05-05T04:42:57.970Z,1368.00
2019-05-05T04:43:58.094Z,1388.00
2019-05-05T04:44:57.952Z,1404.00
2019-05-05T04:45:57.942Z,1424.00
2019-05-05T04:46:57.922Z,1444.00
2019-05-05T04:47:57.914Z,1464.00
2019-05-05T04:48:57.910Z,1480.00
2019-05-05T04:49:57.934Z,1500.00
2019-05-05T04:50:57.874Z,1516.00
2019-05-05T04:51:57.883Z,1540.00
2019-05-05T04:52:57.856Z,1552.00
2019-05-05T04:53:57.842Z,1568.00
2019-05-05T04:54:57.906Z,1584.00
2019-05-05T04:55:57.824Z,1608.00
2019-05-05T04:56:57.834Z,1624.00
2019-05-05T04:57:57.806Z,1644.00
2019-05-05T04:58:57.794Z,1656.00
2019-05-05T04:59:57.802Z,1672.00
2019-05-05T05:00:57.779Z,1692.00
2019-05-05T05:01:57.760Z,1716.00
2019-05-05T05:02:57.770Z,1744.00
2019-05-05T05:03:57.746Z,1788.00
2019-05-05T05:04:57.746Z,1892.00
2019-05-05T05:05:57.716Z,2124.00
2019-05-05T05:06:57.704Z,2256.00
2019-05-05T05:07:58.186Z,2404.00
2019-05-05T05:08:57.691Z,2960.00
2019-05-05T05:09:57.712Z,3272.00
2019-05-05T05:10:57.660Z,2972.00
2019-05-05T05:11:57.656Z,2712.00
2019-05-05T05:12:57.643Z,2504.00
2019-05-05T05:13:57.635Z,2248.00
2019-05-05T05:14:57.642Z,2076.00
2019-05-05T05:15:57.609Z,1976.00
2019-05-05T05:16:57.610Z,1952.00
2019-05-05T05:17:57.589Z,1940.00
2019-05-05T05:18:57.577Z,1920.00
2019-05-05T05:19:57.585Z,1916.00
2019-05-05T05:20:57.563Z,1924.00
2019-05-05T05:22:01.180Z,1932.00
2019-05-05T05:22:57.534Z,1936.00
2019-05-05T05:23:57.519Z,1952.00
2019-05-05T05:24:57.541Z,1964.00
2019-05-05T05:25:57.512Z,1980.00
2019-05-05T05:26:57.489Z,1988.00
2019-05-05T05:27:57.479Z,2000.00
2019-05-05T05:28:57.467Z,2012.00
2019-05-05T05:29:57.491Z,2024.00
2019-05-05T05:30:57.457Z,2036.00
2019-05-05T05:31:57.483Z,2048.00
2019-05-05T05:32:57.424Z,2056.00
2019-05-05T05:33:57.423Z,2072.00
2019-05-05T05:34:57.430Z,2084.00
2019-05-05T05:35:57.397Z,2092.00
2019-05-05T05:36:57.387Z,2104.00
2019-05-05T05:37:57.797Z,2112.00
2019-05-05T05:38:57.359Z,2124.00
2019-05-05T05:39:57.377Z,2132.00
2019-05-05T05:40:57.349Z,2144.00
2019-05-05T05:41:57.335Z,2160.00
2019-05-05T05:42:57.327Z,2184.00
2019-05-05T05:43:57.307Z,2248.00
2019-05-05T05:44:57.294Z,2312.00
2019-05-05T05:45:57.311Z,2488.00
2019-05-05T05:46:57.278Z,2400.00
2019-05-05T05:47:57.271Z,2412.00
2019-05-05T05:48:57.272Z,2416.00
2019-05-05T05:49:57.245Z,2464.00
2019-05-05T05:50:57.260Z,2520.00
2019-05-05T05:51:57.224Z,2420.00
2019-05-05T05:52:57.213Z,2284.00
2019-05-05T05:53:57.218Z,2276.00
2019-05-05T05:54:57.201Z,2280.00
2019-05-05T05:55:57.396Z,2288.00
2019-05-05T05:56:57.172Z,2292.00
2019-05-05T05:57:57.160Z,2296.00
2019-05-05T05:58:57.146Z,2304.00
2019-05-05T05:59:57.222Z,2312.00
2019-05-05T06:00:57.154Z,2316.00
2019-05-05T06:02:09.003Z,2320.00
2019-05-05T06:02:58.106Z,2332.00
2019-05-05T06:03:57.093Z,2340.00
2019-05-05T06:04:57.082Z,2344.00
2019-05-05T06:05:57.122Z,2364.00
2019-05-05T06:06:57.056Z,2360.00
2019-05-05T06:07:57.053Z,2368.00
2019-05-05T06:08:57.032Z,2376.00
2019-05-05T06:09:57.024Z,2388.00
2019-05-05T06:10:57.034Z,2396.00
2019-05-05T06:11:57.028Z,2396.00
2019-05-05T06:12:56.997Z,2408.00
2019-05-05T06:13:56.985Z,2412.00
2019-05-05T06:14:56.974Z,2420.00
2019-05-05T06:15:56.956Z,2428.00
2019-05-05T06:16:56.971Z,2440.00
2019-05-05T06:17:56.938Z,2440.00
2019-05-05T06:18:56.954Z,2444.00
2019-05-05T06:19:56.933Z,2452.00
2019-05-05T06:20:56.918Z,2456.00
2019-05-05T06:21:56.928Z,2460.00
2019-05-05T06:22:56.889Z,2456.00
2019-05-05T06:24:58.031Z,2472.00
2019-05-05T06:26:17.898Z,2472.00
2019-05-05T06:26:56.839Z,2476.00
2019-05-05T06:27:56.837Z,2484.00
2019-05-05T06:28:56.822Z,2480.00
2019-05-05T06:29:56.805Z,2492.00
2019-05-05T06:30:56.800Z,2492.00
2019-05-05T06:31:56.805Z,2492.00
2019-05-05T06:32:56.775Z,2500.00
2019-05-05T06:33:56.768Z,2504.00
2019-05-05T06:34:56.777Z,2508.00
2019-05-05T06:35:56.745Z,2512.00
2019-05-05T06:36:56.753Z,2520.00
2019-05-05T06:37:56.740Z,2520.00
2019-05-05T06:38:56.715Z,2528.00
2019-05-05T06:39:56.713Z,2528.00
2019-05-05T06:40:56.693Z,2536.00
2019-05-05T06:41:56.737Z,2544.00
2019-05-05T06:42:56.669Z,2540.00
2019-05-05T06:43:56.663Z,2548.00
2019-05-05T06:44:56.651Z,2552.00
2019-05-05T06:45:56.642Z,2560.00
2019-05-05T06:46:56.659Z,2556.00
2019-05-05T06:47:56.625Z,2556.00
2019-05-05T06:48:56.609Z,2564.00
2019-05-05T06:49:56.595Z,2572.00
2019-05-05T06:50:56.592Z,2584.00
2019-05-05T06:51:56.601Z,2584.00
2019-05-05T06:52:56.573Z,2584.00
2019-05-05T06:53:56.551Z,2588.00
2019-05-05T06:54:56.545Z,2592.00
2019-05-05T06:55:56.535Z,2596.00
2019-05-05T06:56:56.533Z,2604.00
2019-05-05T06:57:56.537Z,2600.00
2019-05-05T06:58:56.498Z,2608.00
2019-05-05T06:59:56.488Z,2604.00
2019-05-05T07:00:56.478Z,2604.00
2019-05-05T07:01:56.509Z,2608.00
2019-05-05T07:02:56.463Z,2612.00
2019-05-05T07:03:56.453Z,2616.00
2019-05-05T07:04:56.436Z,2624.00
2019-05-05T07:05:56.424Z,2624.00
2019-05-05T07:06:57.255Z,2628.00
2019-05-05T07:07:56.452Z,2636.00
2019-05-05T07:08:56.400Z,2636.00
2019-05-05T07:09:56.384Z,2636.00
2019-05-05T07:10:56.370Z,2636.00
2019-05-05T07:11:56.381Z,2640.00
2019-05-05T07:12:56.399Z,2644.00
2019-05-05T07:13:56.348Z,2640.00
2019-05-05T07:14:56.326Z,2644.00
2019-05-05T07:15:56.329Z,2644.00
2019-05-05T07:16:56.304Z,2644.00
2019-05-05T07:17:56.335Z,2644.00
2019-05-05T07:18:56.306Z,2640.00
2019-05-05T07:19:56.276Z,2640.00
2019-05-05T07:20:56.260Z,2640.00
2019-05-05T07:21:56.275Z,2656.00
2019-05-05T07:23:02.066Z,2664.00
2019-05-05T07:23:57.240Z,2672.00
2019-05-05T07:24:56.218Z,2676.00
2019-05-05T07:25:56.216Z,2676.00
2019-05-05T07:26:56.198Z,2672.00
2019-05-05T07:27:56.199Z,2688.00
2019-05-05T07:28:56.304Z,2688.00
2019-05-05T07:29:56.168Z,2692.00
2019-05-05T07:30:56.195Z,2700.00
2019-05-05T07:31:56.139Z,2696.00
2019-05-05T07:32:56.201Z,2712.00
2019-05-05T07:33:56.128Z,2720.00
2019-05-05T07:34:56.132Z,2724.00
2019-05-05T07:36:01.418Z,2732.00
2019-05-05T07:36:57.084Z,2744.00
2019-05-05T07:37:56.111Z,2740.00
2019-05-05T07:38:56.071Z,2736.00
2019-05-05T07:39:56.067Z,2740.00
2019-05-05T07:40:56.071Z,2752.00
2019-05-05T07:41:56.039Z,2768.00
2019-05-05T07:42:56.037Z,2776.00
2019-05-05T07:43:56.047Z,2772.00
2019-05-05T07:44:56.006Z,2780.00
2019-05-05T07:45:56.019Z,2788.00
2019-05-05T07:46:55.982Z,2788.00
2019-05-05T07:47:55.988Z,2768.00
2019-05-05T07:48:55.980Z,2776.00
2019-05-05T07:49:55.957Z,2812.00
2019-05-05T07:51:01.978Z,2876.00
2019-05-05T07:51:56.960Z,3016.00
2019-05-05T07:52:55.917Z,2988.00
2019-05-05T07:53:55.918Z,3012.00
2019-05-05T07:54:55.931Z,3012.00
2019-05-05T07:55:55.882Z,2992.00
2019-05-05T07:56:55.878Z,3060.00
2019-05-05T07:57:55.899Z,3168.00
2019-05-05T07:58:55.859Z,3104.00
2019-05-05T07:59:55.846Z,3044.00
2019-05-05T08:00:55.825Z,3316.00
2019-05-05T08:01:55.831Z,3620.00
2019-05-05T08:02:55.813Z,3692.00
2019-05-05T08:03:55.833Z,4424.00
2019-05-05T08:04:55.785Z,5380.00
2019-05-05T08:06:04.908Z,5532.00
2019-05-05T08:06:55.763Z,4768.00
2019-05-05T08:07:55.753Z,4484.00
2019-05-05T08:08:55.777Z,4484.00
2019-05-05T08:09:55.728Z,4272.00
2019-05-05T08:10:55.727Z,4468.00
2019-05-05T08:11:55.723Z,4688.00
2019-05-05T08:12:55.694Z,4260.00
2019-05-05T08:13:55.710Z,3528.00
2019-05-05T08:14:55.700Z,3168.00
2019-05-05T08:15:59.860Z,3100.00
2019-05-05T08:16:55.688Z,3084.00
2019-05-05T08:17:55.668Z,3124.00
2019-05-05T08:18:55.639Z,3112.00
2019-05-05T08:19:55.679Z,3116.00
2019-05-05T08:20:55.608Z,3168.00
2019-05-05T08:21:55.599Z,3264.00
2019-05-05T08:22:55.646Z,3348.00
2019-05-05T08:23:55.577Z,3760.00
2019-05-05T08:24:55.663Z,4716.00
2019-05-05T08:25:55.584Z,5044.00
2019-05-05T08:26:55.553Z,4340.00
2019-05-05T08:27:55.532Z,4344.00
2019-05-05T08:28:55.533Z,5076.00
2019-05-05T08:29:55.551Z,5820.00
2019-05-05T08:30:55.516Z,5588.00
2019-05-05T08:31:55.511Z,5440.00
2019-05-05T08:32:55.474Z,6400.00
2019-05-05T08:33:55.490Z,6704.00
2019-05-05T08:35:00.610Z,5680.00
2019-05-05T08:35:56.446Z,6224.00
2019-05-05T08:36:55.443Z,6256.00
2019-05-05T08:37:55.431Z,5808.00
2019-05-05T08:38:55.412Z,5052.00
2019-05-05T08:39:55.527Z,4660.00
2019-05-05T08:40:55.420Z,5096.00
2019-05-05T08:41:55.386Z,4152.00
2019-05-05T08:42:55.368Z,3712.00
2019-05-05T08:43:55.399Z,3648.00
2019-05-05T08:44:55.358Z,3720.00
2019-05-05T08:45:55.522Z,3840.00
2019-05-05T08:46:55.329Z,4816.00
2019-05-05T08:47:55.318Z,5216.00
2019-05-05T08:48:55.311Z,5488.00
2019-05-05T08:49:55.292Z,6076.00
2019-05-05T08:50:55.297Z,6244.00
2019-05-05T08:51:55.284Z,6224.00
2019-05-05T08:52:55.267Z,6488.00
2019-05-05T08:53:55.251Z,6220.00
2019-05-05T08:54:55.238Z,5272.00
2019-05-05T08:55:55.309Z,4672.00
2019-05-05T08:56:55.228Z,4516.00
2019-05-05T08:57:55.210Z,4468.00
2019-05-05T08:58:55.209Z,4620.00
2019-05-05T08:59:55.180Z,5428.00
2019-05-05T09:00:55.201Z,6476.00
2019-05-05T09:01:55.168Z,7088.00
2019-05-05T09:02:55.156Z,7312.00
2019-05-05T09:03:55.164Z,6184.00
2019-05-05T09:04:55.150Z,5156.00
2019-05-05T09:05:55.166Z,4668.00
2019-05-05T09:06:55.125Z,4532.00
2019-05-05T09:07:55.104Z,4388.00
2019-05-05T09:08:55.087Z,4564.00
2019-05-05T09:09:55.071Z,4896.00
2019-05-05T09:10:55.362Z,4692.00
2019-05-05T09:11:55.089Z,4948.00
2019-05-05T09:12:55.043Z,5080.00
2019-05-05T09:13:55.037Z,5304.00
2019-05-05T09:14:55.021Z,5768.00
2019-05-05T09:15:55.024Z,6568.00
2019-05-05T09:16:55.024Z,6400.00
2019-05-05T09:17:54.991Z,5988.00
2019-05-05T09:18:54.977Z,6280.00
2019-05-05T09:19:54.968Z,7288.00
2019-05-05T09:20:54.959Z,7884.00
2019-05-05T09:21:54.963Z,7892.00
2019-05-05T09:22:57.389Z,7252.00
2019-05-05T09:23:59.894Z,6852.00
2019-05-05T09:24:55.914Z,5504.00
2019-05-05T09:25:54.893Z,5392.00
2019-05-05T09:26:54.933Z,5208.00
2019-05-05T09:27:54.891Z,5336.00
2019-05-05T09:28:54.869Z,5412.00
2019-05-05T09:29:54.865Z,5852.00
2019-05-05T09:30:54.852Z,6412.00
2019-05-05T09:31:54.864Z,7076.00
2019-05-05T09:32:54.880Z,7984.00
2019-05-05T09:33:54.815Z,8872.00
2019-05-05T09:34:54.821Z,9448.00
2019-05-05T09:35:54.880Z,10296.00
2019-05-05T09:36:54.856Z,10908.00
2019-05-05T09:37:54.801Z,11048.00
2019-05-05T09:38:54.763Z,11020.00
2019-05-05T09:39:54.757Z,10944.00
2019-05-05T09:40:54.730Z,10408.00
2019-05-05T09:41:54.734Z,10004.00
2019-05-05T09:42:54.732Z,9468.00
2019-05-05T09:43:54.702Z,9004.00
2019-05-05T09:44:54.687Z,8688.00
2019-05-05T09:45:54.767Z,8356.00
2019-05-05T09:46:54.674Z,7848.00
2019-05-05T09:47:54.677Z,7140.00
2019-05-05T09:48:54.659Z,6292.00
2019-05-05T09:49:55.041Z,5576.00
2019-05-05T09:50:54.622Z,5348.00
2019-05-05T09:51:54.636Z,5220.00
2019-05-05T09:52:54.636Z,5396.00
2019-05-05T09:53:54.646Z,5668.00
2019-05-05T09:54:54.592Z,5692.00
2019-05-05T09:55:54.790Z,5792.00
2019-05-05T09:56:54.570Z,6352.00
2019-05-05T09:57:54.580Z,7412.00
2019-05-05T09:58:54.574Z,7836.00
2019-05-05T09:59:54.524Z,8032.00
2019-05-05T10:00:54.801Z,8312.00
2019-05-05T10:01:54.504Z,8864.00
2019-05-05T10:02:54.539Z,9148.00
2019-05-05T10:03:54.487Z,9664.00
2019-05-05T10:04:54.778Z,9420.00
2019-05-05T10:05:54.464Z,8704.00
2019-05-05T10:06:54.453Z,8324.00
2019-05-05T10:07:54.558Z,8172.00
2019-05-05T10:08:54.436Z,7336.00
2019-05-05T10:09:54.448Z,7380.00
2019-05-05T10:10:54.799Z,7728.00
2019-05-05T10:11:54.396Z,7620.00
2019-05-05T10:12:55.015Z,8004.00
2019-05-05T10:13:54.679Z,8360.00
2019-05-05T10:14:54.375Z,9036.00
2019-05-05T10:15:54.921Z,10148.00
2019-05-05T10:16:54.347Z,10448.00
2019-05-05T10:17:54.334Z,10924.00
2019-05-05T10:18:54.340Z,11164.00
2019-05-05T10:19:54.709Z,11608.00
2019-05-05T10:20:54.916Z,11408.00
2019-05-05T10:21:54.316Z,10812.00
2019-05-05T10:22:54.390Z,9164.00
2019-05-05T10:23:54.306Z,7424.00
2019-05-05T10:24:57.236Z,6788.00
2019-05-05T10:25:54.254Z,6112.00
2019-05-05T10:26:54.404Z,5832.00
2019-05-05T10:27:54.230Z,5872.00
2019-05-05T10:28:54.230Z,5936.00
2019-05-05T10:29:54.833Z,6192.00
2019-05-05T10:30:54.188Z,6620.00
2019-05-05T10:31:54.179Z,7260.00
2019-05-05T10:32:54.648Z,7968.00
2019-05-05T10:33:54.189Z,8604.00
2019-05-05T10:34:54.148Z,9140.00
2019-05-05T10:35:54.268Z,9572.00
2019-05-05T10:36:54.151Z,9916.00
2019-05-05T10:37:54.546Z,10332.00
2019-05-05T10:38:54.129Z,10896.00
2019-05-05T10:39:54.438Z,11516.00
2019-05-05T10:40:54.209Z,12112.00
2019-05-05T10:41:56.151Z,12252.00
2019-05-05T10:42:54.229Z,12092.00
2019-05-05T10:43:54.273Z,11612.00
2019-05-05T10:44:54.061Z,11080.00
2019-05-05T10:45:54.636Z,10732.00
2019-05-05T10:46:54.058Z,10440.00
2019-05-05T10:47:54.003Z,10092.00
2019-05-05T10:48:53.996Z,9176.00
2019-05-05T10:49:54.490Z,8808.00
2019-05-05T10:50:53.973Z,9048.00
2019-05-05T10:51:54.449Z,8412.00
2019-05-05T10:52:53.946Z,8340.00
2019-05-05T10:53:54.521Z,7672.00
2019-05-05T10:54:54.807Z,7412.00
2019-05-05T10:55:54.043Z,7444.00
2019-05-05T10:56:53.915Z,7888.00
2019-05-05T10:57:54.421Z,8560.00
2019-05-05T10:58:54.557Z,9248.00
2019-05-05T10:59:54.058Z,9952.00
2019-05-05T11:00:54.486Z,10692.00
2019-05-05T11:01:53.953Z,11748.00
2019-05-05T11:02:53.854Z,13036.00
2019-05-05T11:03:53.831Z,13456.00
2019-05-05T11:04:54.619Z,13880.00
2019-05-05T11:05:53.976Z,14116.00
2019-05-05T11:06:54.614Z,25664.00
2019-05-05T11:07:53.822Z,73600.00
2019-05-05T11:08:54.093Z,49088.00
2019-05-05T11:09:53.759Z,10032.00
2019-05-05T11:10:53.771Z,8916.00
2019-05-05T11:11:53.746Z,9268.00
2019-05-05T11:12:53.736Z,8752.00
2019-05-05T11:13:54.208Z,8368.00
2019-05-05T11:14:54.500Z,8288.00
2019-05-05T11:15:54.737Z,8580.00
2019-05-05T11:16:54.673Z,8812.00
2019-05-05T11:17:54.240Z,9092.00
2019-05-05T11:18:54.144Z,9296.00
2019-05-05T11:19:53.655Z,9896.00
2019-05-05T11:20:54.878Z,10552.00
2019-05-05T11:21:54.077Z,11052.00
2019-05-05T11:22:54.206Z,11712.00
2019-05-05T11:23:54.006Z,12200.00
2019-05-05T11:24:58.322Z,12456.00
2019-05-05T11:25:54.668Z,13604.00
2019-05-05T11:26:54.054Z,18688.00
2019-05-05T11:27:54.129Z,88832.00
2019-05-05T11:28:53.912Z,64160.00
2019-05-05T11:29:54.143Z,16992.00
2019-05-05T11:30:53.793Z,15272.00
2019-05-05T11:31:53.521Z,15168.00
2019-05-05T11:32:53.532Z,15540.00
2019-05-05T11:33:54.227Z,17248.00
2019-05-05T11:34:53.564Z,21440.00
2019-05-05T11:35:54.004Z,39648.00
2019-05-05T11:36:54.408Z,90496.00
2019-05-05T11:37:54.268Z,100000.00
2019-05-05T11:38:53.763Z,66656.00
2019-05-05T11:39:53.709Z,106400.00
2019-05-05T11:40:54.720Z,80160.00
2019-05-05T11:41:54.784Z,88352.00
2019-05-05T11:42:54.112Z,103904.00
2019-05-05T11:43:53.558Z,95552.00
2019-05-05T11:44:53.416Z,68128.00
2019-05-05T11:45:54.475Z,41856.00
2019-05-05T11:46:54.688Z,29760.00
2019-05-05T11:47:53.702Z,26432.00
2019-05-05T11:48:54.408Z,21152.00
2019-05-05T11:49:56.174Z,19104.00
2019-05-05T11:50:53.981Z,21632.00
2019-05-05T11:51:54.253Z,19872.00
2019-05-05T11:52:54.479Z,19904.00
2019-05-05T11:53:54.023Z,14720.00
2019-05-05T11:54:54.380Z,13984.00
2019-05-05T11:55:55.136Z,13524.00
2019-05-05T11:56:53.932Z,13500.00
2019-05-05T11:57:54.502Z,13996.00
2019-05-05T11:58:54.636Z,14488.00
2019-05-05T11:59:54.031Z,15260.00
2019-05-05T12:00:54.522Z,16640.00
2019-05-05T12:01:55.040Z,17152.00
2019-05-05T12:02:54.385Z,17376.00
2019-05-05T12:03:53.637Z,17440.00
2019-05-05T12:04:54.074Z,18112.00
2019-05-05T12:05:53.166Z,21568.00
2019-05-05T12:06:53.144Z,51488.00
2019-05-05T12:07:54.111Z,23776.00
2019-05-05T12:08:53.124Z,18656.00
2019-05-05T12:09:54.884Z,16308.00
2019-05-05T12:10:54.208Z,15164.00
2019-05-05T12:11:54.527Z,14372.00
2019-05-05T12:12:53.734Z,13624.00
2019-05-05T12:13:54.607Z,13152.00
2019-05-05T12:14:53.917Z,12808.00
2019-05-05T12:15:53.841Z,12604.00
2019-05-05T12:16:53.065Z,12548.00
2019-05-05T12:17:54.553Z,12488.00
2019-05-05T12:18:53.948Z,12432.00
2019-05-05T12:19:54.071Z,12276.00
2019-05-05T12:20:54.408Z,12020.00
2019-05-05T12:21:54.834Z,11848.00
2019-05-05T12:22:53.883Z,11668.00